createdAt,value
2023-03-02T00:00:10.932Z,81.75
2023-03-02T00:01:14.829Z,81.88
2023-03-02T00:02:21.689Z,81.79
2023-03-02T00:03:23.846Z,81.79
2023-03-02T00:04:29.049Z,81.83
2023-03-02T00:05:31.177Z,81.93
2023-03-02T00:06:35.102Z,81.95
2023-03-02T00:07:37.386Z,81.99
2023-03-02T00:08:39.400Z,82.14
2023-03-02T00:09:42.425Z,82.12
2023-03-02T00:10:44.191Z,82.00
2023-03-02T00:11:46.104Z,81.98
2023-03-02T00:12:47.644Z,82.04
2023-03-02T00:13:49.159Z,82.09
2023-03-02T00:14:50.799Z,82.00
2023-03-02T00:15:52.616Z,82.24
2023-03-02T00:16:54.086Z,82.13
2023-03-02T00:17:55.530Z,82.16
2023-03-02T00:18:57.014Z,82.16
2023-03-02T00:20:10.940Z,82.22
2023-03-02T00:21:12.388Z,82.26
2023-03-02T00:22:14.015Z,82.30
2023-03-02T00:23:15.554Z,82.36
2023-03-02T00:24:17.831Z,82.50
2023-03-02T00:25:19.410Z,82.47
2023-03-02T00:26:20.975Z,82.59
2023-03-02T00:27:22.918Z,82.60
2023-03-02T00:28:24.382Z,82.62
2023-03-02T00:29:26.228Z,82.75
2023-03-02T00:30:27.681Z,82.68
2023-03-02T00:31:29.189Z,82.81
2023-03-02T00:32:31.072Z,82.73
2023-03-02T00:33:34.042Z,82.86
2023-03-02T00:34:35.613Z,82.82
2023-03-02T00:35:40.844Z,83.08
2023-03-02T00:36:42.897Z,83.08
2023-03-02T00:37:44.641Z,83.07
2023-03-02T00:38:46.756Z,83.21
2023-03-02T00:39:51.265Z,83.24
2023-03-02T00:40:53.068Z,83.36
2023-03-02T00:41:54.504Z,83.32
2023-03-02T00:42:55.963Z,83.35
2023-03-02T00:43:57.603Z,83.40
2023-03-02T00:45:00.764Z,83.41
2023-03-02T00:46:12.291Z,83.33
2023-03-02T00:47:14.048Z,83.46
2023-03-02T00:48:15.569Z,83.52
2023-03-02T00:49:17.037Z,83.59
2023-03-02T00:50:18.622Z,83.55
2023-03-02T00:51:20.295Z,83.64
2023-03-02T00:52:21.952Z,83.68
2023-03-02T00:53:23.539Z,83.67
2023-03-02T00:54:25.318Z,83.71
2023-03-02T00:55:26.815Z,83.56
2023-03-02T00:56:28.701Z,83.80
2023-03-02T00:57:30.214Z,83.73
2023-03-02T00:58:32.334Z,83.64
2023-03-02T00:59:37.329Z,83.82
2023-03-02T01:00:56.520Z,83.85
2023-03-02T01:02:00.204Z,83.86
2023-03-02T01:03:03.208Z,83.99
2023-03-02T01:04:05.036Z,84.02
2023-03-02T01:05:06.953Z,83.98
2023-03-02T01:06:14.780Z,83.94
2023-03-02T01:07:20.401Z,83.87
2023-03-02T01:08:24.426Z,83.99
2023-03-02T01:09:27.797Z,84.13
2023-03-02T01:10:31.626Z,84.16
2023-03-02T01:11:33.013Z,84.04
2023-03-02T01:12:34.472Z,83.99
2023-03-02T01:13:36.071Z,84.14
2023-03-02T01:14:40.109Z,84.00
2023-03-02T01:15:41.697Z,83.98
2023-03-02T01:16:44.107Z,84.04
2023-03-02T01:17:46.074Z,84.02
2023-03-02T01:18:47.576Z,84.11
2023-03-02T01:19:49.247Z,84.29
2023-03-02T01:21:00.090Z,84.20
2023-03-02T01:22:01.844Z,84.24
2023-03-02T01:23:03.630Z,84.41
2023-03-02T01:24:05.936Z,84.30
2023-03-02T01:25:07.890Z,84.31
2023-03-02T01:26:09.657Z,84.43
2023-03-02T01:27:11.231Z,84.37
2023-03-02T01:28:12.757Z,84.47
2023-03-02T01:29:14.256Z,84.49
2023-03-02T01:30:15.929Z,84.51
2023-03-02T01:31:17.997Z,84.40
2023-03-02T01:32:19.474Z,84.56
2023-03-02T01:33:21.686Z,84.49
2023-03-02T01:34:23.779Z,84.54
2023-03-02T01:35:25.541Z,84.67
2023-03-02T01:36:27.041Z,84.63
2023-03-02T01:37:28.503Z,84.59
2023-03-02T01:38:30.119Z,84.69
2023-03-02T01:39:31.670Z,84.65
2023-03-02T01:40:33.269Z,84.56
2023-03-02T01:41:34.732Z,84.52
2023-03-02T01:42:46.605Z,84.51
2023-03-02T01:43:48.088Z,84.58
2023-03-02T01:44:53.480Z,84.54
2023-03-02T01:46:05.932Z,84.68
2023-03-02T01:47:25.828Z,84.55
2023-03-02T01:48:44.302Z,84.70
2023-03-02T01:49:50.612Z,84.56
2023-03-02T01:50:53.685Z,84.60
2023-03-02T01:51:56.093Z,84.69
2023-03-02T01:52:57.637Z,84.49
2023-03-02T01:54:07.996Z,84.54
2023-03-02T01:55:14.292Z,84.57
2023-03-02T01:56:20.197Z,84.52
2023-03-02T01:57:28.148Z,84.52
2023-03-02T01:58:34.650Z,84.69
2023-03-02T01:59:39.933Z,84.57
2023-03-02T02:00:42.187Z,84.50
2023-03-02T02:01:46.749Z,84.59
2023-03-02T02:02:49.906Z,84.55
2023-03-02T02:03:51.482Z,84.56
2023-03-02T02:04:55.240Z,84.61
2023-03-02T02:06:09.770Z,84.76
2023-03-02T02:07:11.222Z,84.65
2023-03-02T02:08:14.200Z,84.83
2023-03-02T02:09:17.651Z,84.77
2023-03-02T02:10:19.465Z,84.50
2023-03-02T02:11:21.355Z,84.61
2023-03-02T02:12:24.307Z,84.51
2023-03-02T02:13:25.838Z,84.55
2023-03-02T02:14:27.921Z,84.79
2023-03-02T02:15:30.011Z,84.52
2023-03-02T02:16:34.030Z,84.65
2023-03-02T02:17:35.823Z,84.76
2023-03-02T02:18:39.708Z,84.62
2023-03-02T02:20:06.504Z,84.56
2023-03-02T02:21:08.682Z,84.56
2023-03-02T02:22:16.875Z,84.76
2023-03-02T02:23:25.525Z,84.51
2023-03-02T02:24:41.323Z,84.58
2023-03-02T02:25:57.703Z,84.42
2023-03-02T02:27:00.615Z,84.36
2023-03-02T02:28:07.816Z,84.57
2023-03-02T02:29:24.179Z,84.28
2023-03-02T02:31:59.763Z,84.27
2023-03-02T02:33:03.264Z,84.24
2023-03-02T02:34:17.167Z,84.29
2023-03-02T02:35:23.600Z,84.37
2023-03-02T02:36:34.332Z,84.20
2023-03-02T02:38:01.819Z,84.22
2023-03-02T02:39:06.356Z,84.00
2023-03-02T02:40:18.167Z,84.13
2023-03-02T02:41:33.410Z,84.20
2023-03-02T02:42:43.370Z,84.20
2023-03-02T02:43:45.168Z,84.14
2023-03-02T02:44:47.172Z,84.18
2023-03-02T02:45:53.280Z,84.12
2023-03-02T02:46:54.915Z,83.94
2023-03-02T02:47:57.294Z,84.02
2023-03-02T02:49:01.654Z,83.99
2023-03-02T02:50:03.679Z,84.05
2023-03-02T02:51:08.518Z,84.02
2023-03-02T02:52:14.328Z,83.97
2023-03-02T02:53:19.716Z,83.95
2023-03-02T02:54:22.746Z,84.08
2023-03-02T02:55:26.090Z,83.98
2023-03-02T02:56:32.308Z,83.96
2023-03-02T02:57:34.146Z,84.07
2023-03-02T02:58:44.194Z,83.81
2023-03-02T02:59:48.657Z,83.86
2023-03-02T03:00:50.564Z,83.63
2023-03-02T03:01:52.484Z,83.58
2023-03-02T03:03:06.893Z,83.70
2023-03-02T03:04:14.060Z,83.78
2023-03-02T03:05:15.974Z,83.75
2023-03-02T03:06:20.462Z,83.76
2023-03-02T03:07:24.189Z,83.56
2023-03-02T03:08:41.246Z,83.44
2023-03-02T03:09:43.170Z,83.58
2023-03-02T03:10:45.132Z,83.42
2023-03-02T03:11:50.913Z,83.47
2023-03-02T03:12:53.020Z,83.43
2023-03-02T03:14:17.566Z,83.25
2023-03-02T03:15:21.158Z,83.18
2023-03-02T03:16:26.486Z,83.16
2023-03-02T03:17:28.199Z,83.19
2023-03-02T03:18:33.147Z,83.02
2023-03-02T03:19:34.978Z,83.23
2023-03-02T03:20:36.532Z,83.03
2023-03-02T03:21:38.067Z,82.82
2023-03-02T03:22:39.689Z,82.96
2023-03-02T03:23:42.302Z,82.89
2023-03-02T03:24:45.274Z,82.73
2023-03-02T03:25:46.809Z,82.60
2023-03-02T03:26:48.978Z,82.78
2023-03-02T03:27:51.120Z,82.68
2023-03-02T03:40:14.411Z,82.54
2023-03-02T03:41:17.218Z,82.56
2023-03-02T03:42:18.659Z,82.28
2023-03-02T03:43:20.431Z,82.33
2023-03-02T03:44:25.117Z,82.38
2023-03-02T03:45:28.803Z,82.26
2023-03-02T03:46:31.922Z,82.14
2023-03-02T03:47:34.089Z,82.09
2023-03-02T03:48:35.607Z,82.02
2023-03-02T03:49:37.179Z,82.08
2023-03-02T03:50:39.732Z,82.06
2023-03-02T03:51:41.289Z,82.10
2023-03-02T03:52:42.779Z,82.01
2023-03-02T03:53:59.108Z,81.82
2023-03-02T03:55:03.149Z,81.76
2023-03-02T03:56:05.277Z,81.79
2023-03-02T03:57:06.871Z,81.79
2023-03-02T03:58:09.208Z,81.74
2023-03-02T03:59:13.404Z,81.55
2023-03-02T04:00:22.577Z,81.50
2023-03-02T04:01:34.350Z,81.45
2023-03-02T04:02:37.184Z,81.40
2023-03-02T04:03:38.727Z,81.35
2023-03-02T04:04:40.382Z,81.46
2023-03-02T04:05:51.111Z,81.23
2023-03-02T04:06:53.983Z,81.12
2023-03-02T04:07:55.590Z,80.98
2023-03-02T04:09:03.785Z,81.05
2023-03-02T04:10:08.330Z,80.93
2023-03-02T04:11:11.325Z,80.84
2023-03-02T04:12:12.930Z,81.09
2023-03-02T04:13:18.248Z,81.07
2023-03-02T04:14:21.687Z,81.08
2023-03-02T04:15:24.500Z,80.79
2023-03-02T04:16:27.333Z,80.87
2023-03-02T04:17:29.012Z,80.95
2023-03-02T04:18:30.528Z,80.87
2023-03-02T04:19:31.937Z,80.94
2023-03-02T04:20:33.575Z,81.07
2023-03-02T04:21:37.752Z,81.06
2023-03-02T04:22:39.654Z,81.10
2023-03-02T04:23:41.166Z,81.01
2023-03-02T04:24:42.996Z,80.94
2023-03-02T04:25:44.935Z,80.99
2023-03-02T04:26:53.421Z,80.96
2023-03-02T04:27:55.669Z,81.03
2023-03-02T04:28:59.519Z,81.05
2023-03-02T04:30:01.411Z,80.91
2023-03-02T04:31:04.262Z,80.78
2023-03-02T04:32:06.647Z,80.94
2023-03-02T04:33:09.352Z,80.81
2023-03-02T04:34:11.319Z,81.07
2023-03-02T04:35:15.292Z,80.93
2023-03-02T04:36:18.907Z,80.89
2023-03-02T04:37:21.597Z,81.00
2023-03-02T04:38:23.294Z,80.87
2023-03-02T04:39:25.563Z,80.93
2023-03-02T04:40:27.692Z,80.87
2023-03-02T04:41:29.156Z,80.91
2023-03-02T04:42:30.681Z,80.84
2023-03-02T04:43:32.460Z,80.99
2023-03-02T04:44:33.985Z,81.02
2023-03-02T04:45:35.583Z,80.82
2023-03-02T04:46:37.398Z,80.73
2023-03-02T04:47:39.684Z,80.80
2023-03-02T04:48:41.477Z,80.79
2023-03-02T04:49:42.903Z,80.72
2023-03-02T04:50:44.658Z,80.66
2023-03-02T04:51:49.153Z,80.86
2023-03-02T04:52:50.601Z,80.74
2023-03-02T04:53:57.343Z,80.71
2023-03-02T04:54:58.853Z,80.81
2023-03-02T04:56:00.437Z,80.88
2023-03-02T04:57:01.863Z,80.72
2023-03-02T04:58:03.758Z,80.69
2023-03-02T04:59:05.483Z,80.67
2023-03-02T05:00:09.266Z,80.71
2023-03-02T05:01:11.567Z,80.75
2023-03-02T05:02:13.055Z,80.71
2023-03-02T05:03:14.575Z,80.77
2023-03-02T05:04:16.247Z,80.78
2023-03-02T05:05:20.680Z,80.75
2023-03-02T05:06:24.447Z,80.60
2023-03-02T05:07:26.033Z,80.67
2023-03-02T05:08:27.650Z,80.65
2023-03-02T05:09:30.244Z,80.76
2023-03-02T05:10:31.750Z,80.51
2023-03-02T05:11:34.046Z,80.48
2023-03-02T05:12:53.786Z,80.65
2023-03-02T05:14:01.513Z,80.47
2023-03-02T05:15:03.271Z,80.47
2023-03-02T05:16:04.971Z,80.52
2023-03-02T05:17:06.434Z,80.41
2023-03-02T05:18:10.432Z,80.48
2023-03-02T05:19:12.676Z,80.54
2023-03-02T05:20:14.528Z,80.37
2023-03-02T05:21:16.449Z,80.49
2023-03-02T05:22:17.986Z,80.38
2023-03-02T05:23:25.221Z,80.19
2023-03-02T05:24:27.241Z,80.36
2023-03-02T05:25:32.257Z,80.53
2023-03-02T05:26:33.970Z,80.28
2023-03-02T05:27:36.197Z,80.37
2023-03-02T05:28:38.529Z,80.29
2023-03-02T05:29:40.051Z,80.34
2023-03-02T05:30:41.750Z,80.31
2023-03-02T05:31:44.561Z,80.40
2023-03-02T05:32:46.260Z,80.27
2023-03-02T05:33:47.974Z,80.43
2023-03-02T05:34:49.420Z,80.28
2023-03-02T05:35:51.051Z,80.29
2023-03-02T05:36:52.533Z,80.25
2023-03-02T05:37:53.908Z,80.19
2023-03-02T05:38:55.432Z,80.26
2023-03-02T05:39:57.670Z,80.33
2023-03-02T05:40:59.318Z,80.28
2023-03-02T05:42:00.763Z,80.29
2023-03-02T05:43:02.357Z,80.31
2023-03-02T05:44:05.333Z,80.12
2023-03-02T05:45:09.112Z,80.28
2023-03-02T05:46:11.033Z,80.21
2023-03-02T05:47:12.530Z,80.23
2023-03-02T05:48:14.277Z,80.24
2023-03-02T05:49:15.750Z,80.12
2023-03-02T05:50:17.530Z,80.35
2023-03-02T05:51:19.016Z,80.12
2023-03-02T05:52:20.695Z,80.15
2023-03-02T05:53:22.341Z,80.12
2023-03-02T05:54:23.905Z,80.14
2023-03-02T05:55:26.092Z,80.27
2023-03-02T05:56:27.626Z,80.21
2023-03-02T05:57:29.068Z,80.28
2023-03-02T05:58:30.606Z,80.20
2023-03-02T05:59:32.111Z,80.21
2023-03-02T06:00:33.495Z,80.30
2023-03-02T06:01:36.228Z,80.20
2023-03-02T06:02:38.571Z,80.15
2023-03-02T06:03:40.086Z,80.09
2023-03-02T06:04:43.701Z,80.35
2023-03-02T06:05:50.276Z,80.21
2023-03-02T06:06:52.116Z,80.18
2023-03-02T06:07:54.163Z,80.17
2023-03-02T06:08:55.623Z,80.24
2023-03-02T06:09:57.016Z,80.04
2023-03-02T06:10:59.234Z,80.16
2023-03-02T06:12:00.709Z,80.10
2023-03-02T06:13:02.296Z,80.03
2023-03-02T06:14:03.838Z,80.16
2023-03-02T06:15:06.056Z,80.08
2023-03-02T06:16:08.464Z,79.92
2023-03-02T06:17:10.128Z,79.79
2023-03-02T06:18:12.014Z,79.66
2023-03-02T06:19:13.426Z,79.63
2023-03-02T06:20:15.329Z,79.56
2023-03-02T06:21:17.014Z,79.59
2023-03-02T06:22:18.833Z,79.46
2023-03-02T06:23:20.348Z,79.27
2023-03-02T06:24:21.780Z,79.21
2023-03-02T06:25:23.959Z,79.04
2023-03-02T06:26:25.512Z,78.94
2023-03-02T06:27:27.405Z,78.85
2023-03-02T06:28:28.890Z,78.94
2023-03-02T06:29:30.341Z,78.87
2023-03-02T06:30:31.804Z,78.86
2023-03-02T06:31:33.849Z,78.95
2023-03-02T06:32:35.749Z,79.03
2023-03-02T06:33:37.261Z,78.85
2023-03-02T06:34:38.781Z,78.81
2023-03-02T06:35:40.414Z,78.75
2023-03-02T06:36:41.947Z,78.86
2023-03-02T06:37:44.466Z,78.58
2023-03-02T06:38:46.063Z,78.49
2023-03-02T06:39:47.482Z,78.45
2023-03-02T06:40:48.896Z,78.57
2023-03-02T06:41:50.720Z,78.62
2023-03-02T06:42:52.339Z,78.33
2023-03-02T06:43:53.869Z,78.20
2023-03-02T06:44:55.252Z,78.17
2023-03-02T06:45:56.745Z,78.17
2023-03-02T06:46:58.198Z,78.21
2023-03-02T06:48:00.574Z,78.09
2023-03-02T06:49:02.685Z,77.80
2023-03-02T06:50:05.279Z,78.07
2023-03-02T06:51:07.268Z,78.02
2023-03-02T06:52:10.309Z,78.11
2023-03-02T06:53:11.972Z,78.15
2023-03-02T06:54:14.136Z,77.54
2023-03-02T06:55:15.581Z,77.64
2023-03-02T06:56:17.289Z,77.64
2023-03-02T06:57:18.784Z,77.60
2023-03-02T06:58:20.398Z,77.26
2023-03-02T06:59:22.409Z,77.26
2023-03-02T07:00:25.941Z,77.33
2023-03-02T07:01:32.331Z,77.05
2023-03-02T07:02:33.859Z,76.92
2023-03-02T07:03:35.558Z,76.87
2023-03-02T07:04:37.205Z,76.78
2023-03-02T07:05:38.708Z,76.73
2023-03-02T07:06:40.111Z,76.50
2023-03-02T07:07:41.806Z,76.60
2023-03-02T07:08:43.360Z,76.55
2023-03-02T07:09:44.853Z,76.77
2023-03-02T07:10:46.350Z,76.45
2023-03-02T07:11:48.381Z,76.60
2023-03-02T07:12:49.888Z,76.29
2023-03-02T07:13:51.534Z,76.20
2023-03-02T07:14:53.023Z,75.92
2023-03-02T07:15:54.515Z,75.87
2023-03-02T07:16:56.839Z,75.70
2023-03-02T07:17:58.283Z,75.62
2023-03-02T07:19:00.479Z,75.21
2023-03-02T07:20:05.043Z,74.83
2023-03-02T07:21:06.886Z,74.57
2023-03-02T07:22:08.449Z,74.90
2023-03-02T07:23:10.022Z,74.35
2023-03-02T07:24:11.526Z,74.50
2023-03-02T07:25:13.410Z,74.34
2023-03-02T07:26:14.825Z,74.28
2023-03-02T07:27:16.327Z,74.03
2023-03-02T07:28:17.747Z,74.20
2023-03-02T07:29:19.215Z,73.88
2023-03-02T07:30:21.245Z,74.08
2023-03-02T07:31:22.670Z,73.51
2023-03-02T07:32:24.205Z,73.49
2023-03-02T07:33:25.688Z,73.69
2023-03-02T07:34:27.378Z,73.21
2023-03-02T07:35:28.907Z,73.27
2023-03-02T07:36:30.552Z,73.15
2023-03-02T07:37:31.975Z,73.22
2023-03-02T07:38:33.494Z,72.94
2023-03-02T07:39:35.101Z,72.41
2023-03-02T07:40:40.221Z,72.83
2023-03-02T07:41:41.663Z,72.84
2023-03-02T07:42:43.054Z,72.46
2023-03-02T07:43:44.621Z,72.50
2023-03-02T07:44:46.300Z,72.54
2023-03-02T07:45:48.747Z,72.46
2023-03-02T07:46:50.587Z,72.56
2023-03-02T07:47:52.232Z,72.67
2023-03-02T07:48:53.775Z,72.23
2023-03-02T07:49:55.608Z,72.25
2023-03-02T07:51:02.117Z,71.57
2023-03-02T07:52:04.062Z,71.72
2023-03-02T07:53:05.652Z,71.99
2023-03-02T07:54:07.278Z,72.25
2023-03-02T07:55:12.748Z,72.22
2023-03-02T07:56:14.206Z,72.05
2023-03-02T07:57:17.393Z,71.89
2023-03-02T07:58:19.203Z,71.75
2023-03-02T07:59:20.592Z,71.78
2023-03-02T08:00:22.349Z,71.49
2023-03-02T08:01:23.911Z,71.82
2023-03-02T08:02:25.537Z,71.92
2023-03-02T08:03:27.065Z,71.79
2023-03-02T08:04:28.519Z,71.79
2023-03-02T08:05:30.372Z,71.34
2023-03-02T08:06:31.870Z,71.48
2023-03-02T08:07:33.418Z,71.37
2023-03-02T08:08:35.852Z,71.81
2023-03-02T08:09:38.806Z,71.55
2023-03-02T08:10:40.342Z,71.23
2023-03-02T08:11:41.945Z,71.72
2023-03-02T08:12:44.103Z,71.53
2023-03-02T08:13:46.437Z,71.43
2023-03-02T08:14:47.911Z,71.25
2023-03-02T08:15:49.499Z,71.45
2023-03-02T08:16:51.645Z,71.37
2023-03-02T08:17:53.237Z,71.25
2023-03-02T08:18:56.430Z,71.46
2023-03-02T08:19:59.388Z,71.63
2023-03-02T08:21:01.227Z,71.38
2023-03-02T08:22:02.716Z,71.54
2023-03-02T08:23:04.172Z,71.39
2023-03-02T08:24:05.945Z,71.89
2023-03-02T08:25:07.943Z,71.62
2023-03-02T08:26:12.599Z,71.79
2023-03-02T08:27:15.277Z,71.54
2023-03-02T08:28:16.807Z,71.64
2023-03-02T08:29:18.339Z,71.44
2023-03-02T08:30:19.840Z,71.54
2023-03-02T08:31:21.650Z,71.43
2023-03-02T08:32:23.134Z,71.19
2023-03-02T08:33:25.972Z,71.38
2023-03-02T08:34:27.538Z,70.92
2023-03-02T08:35:28.973Z,71.14
2023-03-02T08:36:30.930Z,71.04
2023-03-02T08:37:33.548Z,70.76
2023-03-02T08:38:35.336Z,71.08
2023-03-02T08:39:36.827Z,71.29
2023-03-02T08:40:38.417Z,71.27
2023-03-02T08:41:40.020Z,71.07
2023-03-02T08:42:41.550Z,71.06
2023-03-02T08:43:43.316Z,70.96
2023-03-02T08:44:44.742Z,70.93
2023-03-02T08:45:51.987Z,70.81
2023-03-02T08:46:54.416Z,70.81
2023-03-02T08:47:55.921Z,70.45
2023-03-02T08:48:57.329Z,70.60
2023-03-02T08:49:58.802Z,70.77
2023-03-02T08:51:06.687Z,70.94
2023-03-02T08:52:08.312Z,71.22
2023-03-02T08:53:09.754Z,70.85
2023-03-02T08:54:11.961Z,70.62
2023-03-02T08:55:13.557Z,70.95
2023-03-02T08:56:33.465Z,70.90
2023-03-02T08:57:35.428Z,70.55
2023-03-02T08:58:36.942Z,69.86
2023-03-02T08:59:38.770Z,70.17
2023-03-02T09:00:40.506Z,70.01
2023-03-02T09:01:42.341Z,69.83
2023-03-02T09:02:44.022Z,69.84
2023-03-02T09:03:46.232Z,70.11
2023-03-02T09:04:47.709Z,70.16
2023-03-02T09:05:49.260Z,70.25
2023-03-02T09:06:50.926Z,70.27
2023-03-02T09:07:52.408Z,70.25
2023-03-02T09:08:53.906Z,70.35
2023-03-02T09:09:55.386Z,70.04
2023-03-02T09:10:56.791Z,70.16
2023-03-02T09:11:58.241Z,69.99
2023-03-02T09:12:59.978Z,69.93
2023-03-02T09:14:01.647Z,70.15
2023-03-02T09:15:03.433Z,70.32
2023-03-02T09:16:05.764Z,69.80
2023-03-02T09:17:07.384Z,70.05
2023-03-02T09:18:08.888Z,70.10
2023-03-02T09:19:12.486Z,69.69
2023-03-02T09:20:14.069Z,69.35
2023-03-02T09:21:15.689Z,69.37
2023-03-02T09:22:17.869Z,69.48
2023-03-02T09:23:19.953Z,69.46
2023-03-02T09:24:21.568Z,69.30
2023-03-02T09:25:23.008Z,69.62
2023-03-02T09:26:27.599Z,69.20
2023-03-02T09:27:29.208Z,68.95
2023-03-02T09:28:31.376Z,68.58
2023-03-02T09:29:32.842Z,68.42
2023-03-02T09:30:34.316Z,68.73
2023-03-02T09:31:36.754Z,68.68
2023-03-02T09:32:38.969Z,68.49
2023-03-02T09:33:40.927Z,69.02
2023-03-02T09:34:42.356Z,69.08
2023-03-02T09:35:44.751Z,68.92
2023-03-02T09:36:46.555Z,68.57
2023-03-02T09:37:48.145Z,68.72
2023-03-02T09:38:49.767Z,68.36
2023-03-02T09:39:51.204Z,68.59
2023-03-02T09:40:58.366Z,68.45
2023-03-02T09:42:17.822Z,68.13
2023-03-02T09:43:34.263Z,68.13
2023-03-02T09:44:50.315Z,68.20
2023-03-02T09:46:16.030Z,68.32
2023-03-02T09:47:35.901Z,67.13
2023-03-02T09:48:47.268Z,67.41
2023-03-02T09:50:03.974Z,67.14
2023-03-02T09:51:27.363Z,67.73
2023-03-02T09:52:36.128Z,67.43
2023-03-02T09:53:58.068Z,66.95
2023-03-02T09:55:13.508Z,66.97
2023-03-02T09:56:18.965Z,66.12
2023-03-02T09:57:24.588Z,66.20
2023-03-02T09:58:33.123Z,66.37
2023-03-02T09:59:45.195Z,66.88
2023-03-02T10:00:47.226Z,66.82
2023-03-02T10:02:00.601Z,67.12
2023-03-02T10:03:16.989Z,66.78
2023-03-02T10:04:28.922Z,65.76
2023-03-02T10:05:46.042Z,66.35
2023-03-02T10:06:50.935Z,65.38
2023-03-02T10:07:52.716Z,65.59
2023-03-02T10:08:54.576Z,65.14
2023-03-02T10:10:04.477Z,65.54
2023-03-02T10:11:17.589Z,65.86
2023-03-02T10:12:40.936Z,65.78
2023-03-02T10:13:57.577Z,66.39
2023-03-02T10:15:09.904Z,64.65
2023-03-02T10:16:26.394Z,64.60
2023-03-02T10:17:43.027Z,65.28
2023-03-02T10:19:00.682Z,64.75
2023-03-02T10:20:08.228Z,64.60
2023-03-02T10:21:20.840Z,64.43
2023-03-02T10:22:29.089Z,65.68
2023-03-02T10:23:43.556Z,65.73
2023-03-02T10:24:44.955Z,65.25
2023-03-02T10:25:54.160Z,65.24
2023-03-02T10:27:17.207Z,65.41
2023-03-02T10:28:28.554Z,64.98
2023-03-02T10:29:42.275Z,64.94
2023-03-02T10:30:45.221Z,64.96
2023-03-02T10:31:51.997Z,65.19
2023-03-02T10:32:57.304Z,64.35
2023-03-02T10:33:59.943Z,64.58
2023-03-02T10:35:13.337Z,65.22
2023-03-02T10:36:22.900Z,65.22
2023-03-02T10:37:29.637Z,64.71
2023-03-02T10:38:31.503Z,64.19
2023-03-02T10:39:33.051Z,63.86
2023-03-02T10:40:49.803Z,64.00
2023-03-02T10:42:07.005Z,64.90
2023-03-02T10:43:24.506Z,65.07
2023-03-02T10:44:32.164Z,65.03
2023-03-02T10:45:34.351Z,65.24
2023-03-02T10:46:41.397Z,65.22
2023-03-02T10:47:42.995Z,65.54
2023-03-02T10:48:49.807Z,65.16
2023-03-02T10:49:53.203Z,64.53
2023-03-02T10:50:57.681Z,64.30
2023-03-02T10:52:18.727Z,63.95
2023-03-02T10:53:20.159Z,63.88
2023-03-02T10:54:21.661Z,63.01
2023-03-02T10:55:23.203Z,63.73
2023-03-02T10:56:24.760Z,63.52
2023-03-02T10:57:36.204Z,63.50
2023-03-02T10:58:37.711Z,63.39
2023-03-02T10:59:42.779Z,63.16
2023-03-02T11:01:04.690Z,63.14
2023-03-02T11:02:17.661Z,63.39
2023-03-02T11:03:21.444Z,63.97
2023-03-02T11:04:23.047Z,63.74
2023-03-02T11:05:33.930Z,63.32
2023-03-02T11:06:35.657Z,62.19
2023-03-02T11:07:37.402Z,63.51
2023-03-02T11:08:38.894Z,63.46
2023-03-02T11:09:40.625Z,63.64
2023-03-02T11:11:01.526Z,63.25
2023-03-02T11:12:03.585Z,63.16
2023-03-02T11:13:25.939Z,63.16
2023-03-02T11:14:27.375Z,62.58
2023-03-02T11:15:31.574Z,61.92
2023-03-02T11:16:33.268Z,61.82
2023-03-02T11:17:38.296Z,61.98
2023-03-02T11:18:43.860Z,61.49
2023-03-02T11:19:45.492Z,61.47
2023-03-02T11:20:49.937Z,61.34
2023-03-02T11:22:05.619Z,61.41
2023-03-02T11:23:28.706Z,61.52
2023-03-02T11:24:40.920Z,61.80
2023-03-02T11:25:53.975Z,62.17
2023-03-02T11:27:00.114Z,62.61
2023-03-02T11:28:20.371Z,62.39
2023-03-02T11:29:35.828Z,62.26
2023-03-02T11:30:44.671Z,62.42
2023-03-02T11:31:58.257Z,62.72
2023-03-02T11:33:39.407Z,63.10
2023-03-02T11:34:57.337Z,63.04
2023-03-02T11:36:05.697Z,62.47
2023-03-02T11:37:13.442Z,62.20
2023-03-02T11:38:26.513Z,62.30
2023-03-02T11:39:54.957Z,62.59
2023-03-02T11:41:13.180Z,63.12
2023-03-02T11:42:36.692Z,62.69
2023-03-02T11:43:38.352Z,63.17
2023-03-02T11:44:39.781Z,63.16
2023-03-02T11:46:00.341Z,63.52
2023-03-02T11:47:02.083Z,63.98
2023-03-02T11:48:08.259Z,64.26
2023-03-02T11:49:31.311Z,64.27
2023-03-02T11:50:37.664Z,64.30
2023-03-02T11:51:58.820Z,63.87
2023-03-02T11:53:07.292Z,62.65
2023-03-02T11:54:47.019Z,61.03
2023-03-02T11:55:50.012Z,61.04
2023-03-02T11:56:51.696Z,60.67
2023-03-02T11:59:14.175Z,60.35
2023-03-02T12:00:37.773Z,60.40
2023-03-02T12:01:39.817Z,59.91
2023-03-02T12:02:41.422Z,60.11
2023-03-02T12:03:45.000Z,59.53
2023-03-02T12:04:47.128Z,60.82
2023-03-02T12:05:51.789Z,60.88
2023-03-02T12:06:53.568Z,61.45
2023-03-02T12:08:07.654Z,61.70
2023-03-02T12:09:36.703Z,61.53
2023-03-02T12:10:41.943Z,61.56
2023-03-02T12:11:45.006Z,61.05
2023-03-02T12:12:56.946Z,60.32
2023-03-02T12:14:04.709Z,58.10
2023-03-02T12:15:42.106Z,57.30
2023-03-02T12:16:45.280Z,58.82
2023-03-02T12:17:46.939Z,58.55
2023-03-02T12:18:52.526Z,58.82
2023-03-02T12:20:19.986Z,58.22
2023-03-02T12:21:23.905Z,58.54
2023-03-02T12:22:28.723Z,57.87
2023-03-02T12:23:32.480Z,57.61
2023-03-02T12:24:36.676Z,58.21
2023-03-02T12:25:48.860Z,58.14
2023-03-02T12:27:22.372Z,57.04
2023-03-02T12:28:32.338Z,56.07
2023-03-02T12:29:45.646Z,57.30
2023-03-02T12:30:55.993Z,57.23
2023-03-02T12:31:57.565Z,57.18
2023-03-02T12:32:59.101Z,56.14
2023-03-02T12:34:13.344Z,56.74
2023-03-02T12:35:20.114Z,56.33
2023-03-02T12:36:29.029Z,55.44
2023-03-02T12:37:41.397Z,53.89
2023-03-02T12:38:52.122Z,55.17
2023-03-02T12:40:31.401Z,54.91
2023-03-02T12:41:53.832Z,53.18
2023-03-02T12:43:06.731Z,51.66
2023-03-02T12:44:20.443Z,53.25
2023-03-02T12:45:39.348Z,53.03
2023-03-02T12:46:46.603Z,53.11
2023-03-02T12:47:56.098Z,52.37
2023-03-02T12:49:13.447Z,51.54
2023-03-02T12:50:24.294Z,50.48
2023-03-02T12:51:28.855Z,51.10
2023-03-02T12:52:35.923Z,50.96
2023-03-02T12:53:39.116Z,51.28
2023-03-02T12:54:40.526Z,51.65
2023-03-02T12:55:42.009Z,51.58
2023-03-02T12:56:44.252Z,51.41
2023-03-02T12:57:54.596Z,50.92
2023-03-02T12:58:56.127Z,49.80
2023-03-02T13:00:00.798Z,47.80
2023-03-02T13:01:03.454Z,47.28
2023-03-02T13:02:14.240Z,48.73
2023-03-02T13:03:15.793Z,48.71
2023-03-02T13:04:25.652Z,47.60
2023-03-02T13:05:30.133Z,48.48
2023-03-02T13:06:32.303Z,48.30
2023-03-02T13:07:44.666Z,48.05
2023-03-02T13:08:49.577Z,47.78
2023-03-02T13:09:57.046Z,47.68
2023-03-02T13:11:01.689Z,47.88
2023-03-02T13:12:03.340Z,47.82
2023-03-02T13:13:27.995Z,46.75
2023-03-02T13:14:30.024Z,47.08
2023-03-02T13:15:31.461Z,47.75
2023-03-02T13:16:34.499Z,46.72
2023-03-02T13:17:36.325Z,45.67
2023-03-02T13:18:38.938Z,44.57
2023-03-02T13:19:40.505Z,46.07
2023-03-02T13:20:42.589Z,46.03
2023-03-02T13:21:44.202Z,45.78
2023-03-02T13:22:45.791Z,44.62
2023-03-02T13:23:51.101Z,44.96
2023-03-02T13:25:02.722Z,44.69
2023-03-02T13:26:05.061Z,44.79
2023-03-02T13:27:14.733Z,45.31
2023-03-02T13:28:33.784Z,45.17
2023-03-02T13:29:35.239Z,45.41
2023-03-02T13:30:42.845Z,44.93
2023-03-02T13:31:44.836Z,44.21
2023-03-02T13:32:46.430Z,44.53
2023-03-02T13:33:49.817Z,44.61
2023-03-02T13:34:52.953Z,44.51
2023-03-02T13:35:55.546Z,44.10
2023-03-02T13:36:57.216Z,44.58
2023-03-02T13:38:13.312Z,42.43
2023-03-02T13:39:20.706Z,41.25
2023-03-02T13:40:22.066Z,41.76
2023-03-02T13:41:28.822Z,42.47
2023-03-02T13:42:39.319Z,42.05
2023-03-02T13:43:41.110Z,42.04
2023-03-02T13:44:42.556Z,42.85
2023-03-02T13:46:14.076Z,43.06
2023-03-02T13:47:21.915Z,42.74
2023-03-02T13:48:23.750Z,42.58
2023-03-02T13:49:31.785Z,43.10
2023-03-02T13:50:33.189Z,42.62
2023-03-02T13:51:38.366Z,42.29
2023-03-02T13:52:40.881Z,42.79
2023-03-02T13:53:51.013Z,42.09
2023-03-02T13:54:52.487Z,42.23
2023-03-02T13:55:54.310Z,42.85
2023-03-02T13:56:58.340Z,42.37
2023-03-02T13:58:00.894Z,42.28
2023-03-02T13:59:02.365Z,42.44
2023-03-02T14:00:04.653Z,42.68
2023-03-02T14:01:07.021Z,42.03
2023-03-02T14:02:23.196Z,41.63
2023-03-02T14:03:29.772Z,40.80
2023-03-02T14:04:31.254Z,41.03
2023-03-02T14:05:32.765Z,41.13
2023-03-02T14:06:34.573Z,41.27
2023-03-02T14:07:36.164Z,40.94
2023-03-02T14:08:37.708Z,41.48
2023-03-02T14:09:39.245Z,41.97